Time;durP1;ratioP1;P1;durP2;ratioP2;P2;SDS_P1;SDS_P2;PMS_P1;PMS_P2;Temp;Humidity;BMP_temperature;BMP_pressure;BME280_temperature;BME280_humidity;BME280_pressure;Samples;Min_cycle;Max_cycle;Signal;HPM_P1;HPM_P2
2022/03/11 00:00:45;;;;;;;11.70;7.00;;;3.50;55.40;;;2.32;47.97;97622.69;5029653;28;20446;-80
2022/03/11 00:03:12;;;;;;;12.55;6.93;;;3.50;55.50;;;2.31;47.95;97617.63;5026601;28;20417;-80
2022/03/11 00:05:39;;;;;;;10.98;6.90;;;3.50;55.90;;;2.25;47.85;97624.44;5028492;28;20415;-79
2022/03/11 00:08:05;;;;;;;13.75;7.32;;;3.50;55.60;;;2.37;48.12;97616.06;5031138;28;20430;-80
2022/03/11 00:10:33;;;;;;;13.13;7.18;;;3.50;56.70;;;2.36;48.50;97624.88;5030154;28;20422;-80
2022/03/11 00:12:59;;;;;;;12.50;6.90;;;3.50;56.30;;;2.21;48.80;97620.59;5030886;28;20995;-80
2022/03/11 00:15:25;;;;;;;11.18;7.00;;;3.50;56.10;;;2.26;48.76;97612.16;5025675;28;20405;-80
2022/03/11 00:17:52;;;;;;;12.75;7.88;;;3.50;56.50;;;2.15;48.86;97610.91;5030385;28;20450;-80
2022/03/11 00:20:21;;;;;;;14.98;7.78;;;3.40;56.90;;;2.12;49.64;97608.69;5030705;28;20403;-80
2022/03/11 00:22:48;;;;;;;14.45;8.20;;;3.40;57.10;;;2.22;49.65;97603.13;5030891;28;20469;-80
2022/03/11 00:25:15;;;;;;;13.93;8.60;;;3.40;57.60;;;2.19;49.98;97609.53;5045883;28;20908;-79
2022/03/11 00:27:41;;;;;;;14.43;7.65;;;3.40;57.70;;;2.12;49.28;97602.66;5029998;28;20411;-80
2022/03/11 00:30:08;;;;;;;11.35;7.65;;;3.40;57.30;;;2.10;49.25;97607.28;5030053;28;20415;-80
2022/03/11 00:32:34;;;;;;;11.73;7.05;;;3.40;57.20;;;2.08;49.16;97602.25;5029914;28;20472;-80
2022/03/11 00:35:02;;;;;;;12.60;7.75;;;3.40;57.00;;;2.16;49.53;97602.09;5030311;28;20403;-80
2022/03/11 00:37:28;;;;;;;16.45;8.85;;;3.50;57.30;;;2.22;49.83;97600.50;5030250;28;20422;-80
2022/03/11 00:39:54;;;;;;;13.63;8.50;;;3.50;57.60;;;2.24;49.25;97604.56;5018528;28;20423;-80
2022/03/11 00:42:20;;;;;;;15.70;8.63;;;3.50;57.40;;;2.27;49.77;97603.34;5010418;28;20913;-80
2022/03/11 00:44:46;;;;;;;15.17;8.50;;;3.60;57.80;;;2.24;49.78;97599.31;5013998;28;20423;-80
2022/03/11 00:47:12;;;;;;;18.15;8.82;;;3.60;57.60;;;2.27;50.48;97605.94;5024403;28;20419;-80
2022/03/11 00:49:38;;;;;;;20.20;9.73;;;3.50;58.60;;;2.33;51.21;97600.75;5029745;28;20403;-80
2022/03/11 00:52:06;;;;;;;17.88;9.90;;;3.50;59.20;;;2.30;50.83;97598.56;5029887;28;20418;-80
2022/03/11 00:54:32;;;;;;;18.23;10.35;;;3.50;59.40;;;2.21;51.50;97606.72;5029711;28;20489;-80
2022/03/11 00:56:58;;;;;;;19.40;10.33;;;3.40;59.50;;;2.15;51.82;97600.47;5030241;28;20537;-80
2022/03/11 00:59:24;;;;;;;17.48;9.75;;;3.40;60.00;;;2.10;52.06;97605.47;5030198;28;20414;-80
2022/03/11 01:01:50;;;;;;;17.58;9.90;;;3.40;60.00;;;2.04;52.30;97595.78;5029708;28;20422;-80
2022/03/11 01:04:16;;;;;;;15.27;9.68;;;3.30;60.20;;;1.89;52.15;97592.47;5029830;28;20415;-80
2022/03/11 01:06:42;;;;;;;20.13;9.88;;;3.20;60.40;;;1.88;52.23;97604.72;5029859;28;20741;-80
2022/03/11 01:09:09;;;;;;;19.75;10.68;;;3.20;60.70;;;1.90;52.74;97605.34;5029808;28;20919;-80
2022/03/11 01:11:35;;;;;;;20.80;10.50;;;3.10;61.30;;;1.81;53.77;97597.81;5029717;28;20769;-79
2022/03/11 01:14:01;;;;;;;19.90;10.80;;;3.00;62.10;;;1.73;53.70;97595.38;5029688;28;20407;-79
2022/03/11 01:16:27;;;;;;;17.58;11.07;;;2.90;62.30;;;1.69;53.67;97605.38;5029852;28;20476;-79
2022/03/11 01:18:53;;;;;;;17.33;10.02;;;2.90;62.70;;;1.57;54.26;97609.50;5029801;28;20407;-79
2022/03/11 01:21:19;;;;;;;18.58;10.90;;;2.80;63.00;;;1.60;54.80;97603.91;5028113;28;20924;-80
2022/03/11 01:23:45;;;;;;;19.00;11.60;;;2.80;64.00;;;1.51;54.66;97587.56;5029757;28;20884;-80
2022/03/11 01:26:13;;;;;;;20.45;11.38;;;2.80;64.00;;;1.51;54.64;97598.00;5029945;28;20425;-79
2022/03/11 01:28:41;;;;;;;19.58;12.10;;;2.80;64.40;;;1.48;55.12;97597.59;5031125;28;20411;-80
2022/03/11 01:31:07;;;;;;;17.45;10.95;;;2.80;64.50;;;1.48;54.98;97605.41;5029359;28;20419;-79
2022/03/11 01:33:33;;;;;;;19.05;11.77;;;2.70;64.50;;;1.53;55.52;97596.03;5010396;28;20686;-80
2022/03/11 01:35:59;;;;;;;21.17;11.97;;;2.70;65.10;;;1.38;55.56;97589.28;5010161;28;20834;-80
2022/03/11 01:38:25;;;;;;;19.90;11.90;;;2.70;64.70;;;1.42;55.82;97591.34;5010408;28;20973;-79
2022/03/11 01:40:51;;;;;;;17.70;11.13;;;2.70;65.10;;;1.33;55.25;97599.47;5013011;28;20452;-79
2022/03/11 01:43:18;;;;;;;22.30;12.70;;;2.70;64.90;;;1.37;55.93;97601.50;5014057;28;20413;-79
2022/03/11 01:45:45;;;;;;;21.17;11.50;;;2.60;65.50;;;1.30;56.35;97602.44;5029519;28;20894;-79
2022/03/11 01:48:11;;;;;;;20.35;12.38;;;2.60;65.70;;;1.27;56.61;97593.22;5013938;28;20421;-79
2022/03/11 01:50:40;;;;;;;20.50;12.48;;;2.50;66.30;;;1.27;56.35;97597.63;5027167;28;20856;-79
2022/03/11 01:53:08;;;;;;;24.77;13.70;;;2.50;66.10;;;1.27;56.78;97593.22;5032965;28;20407;-79
2022/03/11 01:55:34;;;;;;;25.05;14.25;;;2.50;67.00;;;1.22;57.14;97587.72;5033027;28;20407;-79
2022/03/11 01:58:00;;;;;;;21.42;12.68;;;2.40;67.20;;;1.19;57.20;97590.72;5048618;28;20446;-79
2022/03/11 02:00:28;;;;;;;20.98;12.82;;;2.40;67.20;;;1.19;57.14;97593.34;5019125;28;21120;-79
2022/03/11 02:02:53;;;;;;;21.95;12.73;;;2.40;67.20;;;1.07;57.05;97587.78;5032513;28;20407;-79
2022/03/11 02:05:20;;;;;;;26.48;13.90;;;2.40;67.40;;;1.10;57.52;97582.22;5032902;28;20446;-79
2022/03/11 02:07:47;;;;;;;23.83;13.95;;;2.30;68.10;;;1.06;57.65;97577.53;5033296;28;20465;-79
2022/03/11 02:10:14;;;;;;;25.40;14.15;;;2.30;68.10;;;1.04;57.44;97584.75;5032647;28;20411;-79
2022/03/11 02:12:39;;;;;;;21.25;13.10;;;2.30;68.10;;;0.96;57.75;97579.66;5032952;28;20541;-79
2022/03/11 02:15:08;;;;;;;23.83;13.93;;;2.30;68.20;;;0.99;58.12;97576.69;5031921;28;20505;-79
2022/03/11 02:17:35;;;;;;;26.00;14.87;;;2.20;68.50;;;0.90;58.03;97583.03;5032948;28;20411;-79
2022/03/11 02:20:02;;;;;;;26.95;15.40;;;2.20;68.50;;;0.85;58.75;97580.13;5032811;28;20984;-79
2022/03/11 02:22:34;;;;;;;22.02;13.40;;;2.20;69.00;;;0.77;58.37;97576.66;5032630;28;20776;-79
2022/03/11 02:25:01;;;;;;;25.45;14.55;;;2.10;68.70;;;0.86;58.39;97581.75;5032864;28;20450;-79
2022/03/11 02:27:27;;;;;;;25.23;14.93;;;2.10;69.10;;;0.85;58.69;97572.31;5032592;28;20896;-79
2022/03/11 02:29:52;;;;;;;24.27;14.90;;;2.10;69.30;;;0.73;58.34;97579.84;5032813;28;20450;-79
2022/03/11 02:32:18;;;;;;;29.45;15.50;;;2.00;69.20;;;0.78;58.96;97572.25;5032220;28;20920;-79
2022/03/11 02:34:44;;;;;;;26.38;15.70;;;2.00;69.60;;;0.74;58.74;97574.44;5031437;28;21071;-79
2022/03/11 02:37:10;;;;;;;29.23;15.15;;;2.00;69.80;;;0.67;59.55;97583.19;5032126;28;20415;-79
2022/03/11 02:39:36;;;;;;;25.92;15.40;;;1.90;70.00;;;0.64;59.55;97583.53;5032416;28;20862;-79
2022/03/11 02:42:04;;;;;;;24.35;14.55;;;1.90;70.30;;;0.52;59.23;97575.41;5031812;28;20403;-79
2022/03/11 02:44:31;;;;;;;25.00;14.88;;;1.90;70.30;;;0.46;59.80;97576.09;5032287;28;20411;-79
2022/03/11 02:46:59;;;;;;;30.42;16.60;;;1.80;70.50;;;0.39;60.07;97576.03;5032396;28;20492;-79
2022/03/11 02:49:26;;;;;;;27.05;16.35;;;1.60;71.00;;;0.34;60.55;97567.97;5032099;28;20450;-79
2022/03/11 02:51:52;;;;;;;28.63;16.23;;;1.70;71.20;;;0.30;60.52;97565.91;5031721;28;20469;-79
2022/03/11 02:54:18;;;;;;;24.60;14.50;;;1.60;71.50;;;0.20;60.31;97560.16;5032356;28;20438;-79
2022/03/11 02:56:44;;;;;;;29.08;15.73;;;1.60;71.20;;;0.25;60.27;97563.03;5032316;28;20447;-79
2022/03/11 02:59:11;;;;;;;28.85;16.17;;;1.60;71.40;;;0.33;60.38;97561.13;5031901;28;20493;-79
2022/03/11 03:01:37;;;;;;;28.27;16.37;;;1.60;71.70;;;0.29;60.14;97564.31;5031275;28;20418;-79
2022/03/11 03:04:03;;;;;;;30.60;16.75;;;1.60;71.70;;;0.25;60.39;97566.44;5032003;28;20415;-79
2022/03/11 03:06:29;;;;;;;29.77;17.30;;;1.60;71.50;;;0.33;60.77;97562.94;5031473;28;20419;-80
2022/03/11 03:08:55;;;;;;;30.08;16.95;;;1.60;71.80;;;0.27;60.53;97561.06;5031575;28;20419;-79
2022/03/11 03:11:21;;;;;;;27.65;16.73;;;1.60;71.90;;;0.27;60.74;97555.84;5031450;28;20415;-79
2022/03/11 03:13:47;;;;;;;29.27;16.90;;;1.60;71.80;;;0.23;60.82;97551.97;5031895;28;20795;-79
2022/03/11 03:16:14;;;;;;;27.65;16.15;;;1.50;71.60;;;0.13;60.11;97554.88;5031780;28;20532;-79
2022/03/11 03:18:40;;;;;;;29.73;16.42;;;1.50;71.50;;;0.20;60.39;97555.78;5031704;28;20834;-79
2022/03/11 03:21:06;;;;;;;26.80;16.13;;;1.50;71.80;;;0.17;60.52;97552.72;5031067;28;20506;-80
2022/03/11 03:23:32;;;;;;;28.20;16.70;;;1.50;71.70;;;0.06;60.32;97555.78;5030343;28;20427;-79
2022/03/11 03:26:00;;;;;;;26.13;16.00;;;1.40;71.90;;;-0.03;60.65;97562.88;5031376;28;20480;-80
2022/03/11 03:28:26;;;;;;;33.50;17.58;;;1.30;72.20;;;-0.03;61.24;97557.66;5031558;28;20425;-79
2022/03/11 03:30:52;;;;;;;31.42;17.77;;;1.20;72.80;;;-0.09;61.39;97556.59;5030959;28;20999;-79
2022/03/11 03:33:19;;;;;;;29.75;17.55;;;1.20;73.20;;;-0.16;61.80;97557.50;5031561;28;20928;-79
2022/03/11 03:35:45;;;;;;;30.83;17.70;;;1.20;73.30;;;-0.22;61.96;97559.00;5031317;28;20441;-79
2022/03/11 03:38:11;;;;;;;33.78;19.20;;;1.10;73.30;;;-0.14;61.83;97556.31;5031486;28;20565;-80
2022/03/11 03:40:37;;;;;;;31.95;17.75;;;1.10;73.70;;;-0.15;62.07;97559.91;5030639;28;20495;-80
2022/03/11 03:43:03;;;;;;;32.75;18.27;;;1.10;73.50;;;-0.12;62.05;97551.75;5031125;28;20507;-80
2022/03/11 03:45:30;;;;;;;33.70;18.63;;;1.20;73.70;;;-0.16;61.94;97550.50;5030825;28;20411;-80
2022/03/11 03:47:56;;;;;;;26.17;16.65;;;1.20;73.70;;;-0.24;61.85;97555.78;5031006;28;20869;-80
2022/03/11 03:50:23;;;;;;;26.00;15.68;;;1.20;73.40;;;-0.26;61.73;97554.34;5030534;28;20442;-79
2022/03/11 03:52:49;;;;;;;29.70;17.25;;;1.10;73.20;;;-0.21;61.50;97550.22;5028876;28;20429;-79
2022/03/11 03:55:15;;;;;;;29.98;17.00;;;1.20;73.10;;;-0.14;61.18;97545.91;5031174;28;20807;-79
2022/03/11 03:57:41;;;;;;;28.85;17.35;;;1.30;73.00;;;-0.13;61.02;97549.31;5030868;28;20477;-80
2022/03/11 04:00:09;;;;;;;28.30;17.13;;;1.30;72.80;;;-0.19;61.38;97543.03;5030515;28;20447;-80
2022/03/11 04:02:36;;;;;;;32.10;19.33;;;1.20;72.60;;;-0.09;61.58;97546.19;5030123;28;20438;-80
2022/03/11 04:05:03;;;;;;;32.70;19.15;;;1.20;73.20;;;-0.08;61.30;97550.41;5030672;28;20426;-80
2022/03/11 04:07:31;;;;;;;34.40;19.13;;;1.20;73.30;;;-0.12;61.81;97546.53;5030626;28;20433;-80
2022/03/11 04:09:56;;;;;;;32.40;19.42;;;1.20;73.20;;;-0.07;61.49;97538.19;5030684;28;20496;-80
2022/03/11 04:12:23;;;;;;;30.55;18.50;;;1.20;73.20;;;-0.27;61.53;97548.34;5030405;28;20935;-80
2022/03/11 04:14:48;;;;;;;27.73;16.90;;;1.10;72.80;;;-0.35;61.64;97545.00;5030475;28;20407;-80
2022/03/11 04:17:14;;;;;;;30.00;17.77;;;1.10;73.00;;;-0.31;61.52;97547.09;5030622;28;20414;-79
2022/03/11 04:19:40;;;;;;;28.02;15.90;;;1.10;73.20;;;-0.41;61.48;97539.53;5030269;28;20514;-80
2022/03/11 04:22:06;;;;;;;27.53;16.07;;;1.00;73.00;;;-0.41;61.74;97542.13;5030349;28;20582;-80
2022/03/11 04:24:33;;;;;;;28.13;16.83;;;1.00;73.00;;;-0.40;61.41;97541.16;5030489;28;20819;-80
2022/03/11 04:26:59;;;;;;;27.70;16.67;;;1.00;73.10;;;-0.32;61.20;97544.66;5030322;28;20429;-79
2022/03/11 04:29:26;;;;;;;30.20;16.90;;;1.10;72.90;;;-0.28;61.13;97546.72;5030458;28;20838;-80
2022/03/11 04:31:52;;;;;;;31.93;17.83;;;1.10;72.60;;;-0.25;61.24;97548.16;5030001;28;20439;-80
2022/03/11 04:34:18;;;;;;;28.80;17.65;;;1.10;72.40;;;-0.25;61.01;97548.16;5030469;28;20760;-80
2022/03/11 04:36:43;;;;;;;32.88;17.75;;;1.10;72.30;;;-0.27;60.58;97543.13;5030289;28;20439;-80
2022/03/11 04:39:09;;;;;;;26.33;16.48;;;1.10;72.10;;;-0.27;60.86;97540.53;5030141;28;20503;-80
2022/03/11 04:41:37;;;;;;;31.67;17.75;;;1.10;71.90;;;-0.22;60.14;97550.38;5029643;28;20497;-80
2022/03/11 04:44:03;;;;;;;31.83;18.23;;;1.20;71.80;;;-0.15;60.12;97548.72;5030262;28;20844;-80
2022/03/11 04:46:30;;;;;;;32.20;18.45;;;1.20;71.70;;;-0.11;59.85;97552.56;5028801;28;20415;-80
2022/03/11 04:48:56;;;;;;;32.72;18.27;;;1.20;71.50;;;-0.14;60.21;97555.50;5029395;28;20414;-80
2022/03/11 04:51:22;;;;;;;29.97;17.73;;;1.10;71.30;;;-0.28;60.22;97548.50;5029766;28;20518;-80
2022/03/11 04:53:49;;;;;;;29.40;17.15;;;1.10;71.20;;;-0.38;60.25;97540.19;5029915;28;20411;-80
2022/03/11 04:56:15;;;;;;;30.63;17.95;;;1.10;71.30;;;-0.34;60.09;97551.81;5030089;28;20876;-79
2022/03/11 04:58:42;;;;;;;28.83;16.98;;;1.00;71.60;;;-0.52;60.56;97546.94;5030194;28;21071;-80
2022/03/11 05:01:08;;;;;;;25.57;15.53;;;0.90;71.60;;;-0.62;60.64;97549.00;5029249;28;20434;-79
2022/03/11 05:03:34;;;;;;;25.55;14.88;;;0.80;71.70;;;-0.69;60.87;97548.91;5029548;28;20417;-78
2022/03/11 05:06:00;;;;;;;27.42;16.65;;;0.70;71.90;;;-0.69;60.98;97543.72;5027140;28;20510;-80
2022/03/11 05:08:26;;;;;;;30.77;18.60;;;0.80;72.10;;;-0.59;60.88;97544.25;5028084;28;20449;-79
2022/03/11 05:10:52;;;;;;;30.85;16.92;;;0.70;72.40;;;-0.71;60.96;97543.06;5029189;28;20429;-79
2022/03/11 05:13:18;;;;;;;29.15;16.70;;;0.70;72.30;;;-0.75;60.82;97547.00;5027920;28;20417;-79
2022/03/11 05:15:45;;;;;;;31.33;17.45;;;0.70;72.10;;;-0.64;60.42;97541.38;5032957;28;20783;-79
2022/03/11 05:18:11;;;;;;;30.10;16.58;;;0.70;71.80;;;-0.64;60.00;97545.78;5032212;28;20415;-79
2022/03/11 05:20:37;;;;;;;29.15;16.70;;;0.70;71.40;;;-0.61;59.69;97548.03;5025905;28;20832;-79
2022/03/11 05:23:03;;;;;;;24.58;15.00;;;0.80;70.90;;;-0.56;59.34;97540.50;5033774;28;20418;-79
2022/03/11 05:25:30;;;;;;;26.48;14.55;;;0.80;70.40;;;-0.59;59.12;97549.44;5030435;28;20425;-77
2022/03/11 05:27:56;;;;;;;26.05;14.90;;;0.80;70.30;;;-0.56;58.70;97554.31;5033739;22;20436;-78
2022/03/11 05:30:22;;;;;;;25.17;15.05;;;0.80;70.00;;;-0.52;58.38;97560.75;5019694;28;20859;-78
2022/03/11 05:32:49;;;;;;;26.95;15.93;;;0.90;69.70;;;-0.47;58.49;97553.25;5015278;28;20404;-80
2022/03/11 05:35:16;;;;;;;29.27;16.33;;;0.90;69.40;;;-0.51;57.75;97551.97;5018123;28;20774;-77
2022/03/11 05:37:43;;;;;;;27.30;16.75;;;0.90;69.10;;;-0.50;58.34;97561.41;5013395;28;20413;-76
2022/03/11 05:40:10;;;;;;;28.98;16.10;;;0.80;69.20;;;-0.51;57.96;97556.38;5010772;28;20475;-77
2022/03/11 05:42:36;;;;;;;27.08;15.98;;;0.80;69.10;;;-0.60;58.06;97567.84;5012160;28;20969;-76
2022/03/11 05:45:02;;;;;;;31.20;16.05;;;0.80;69.20;;;-0.60;58.21;97560.81;5013148;28;20533;-77
2022/03/11 05:47:29;;;;;;;28.83;16.00;;;0.70;69.40;;;-0.69;58.50;97569.72;5011179;28;20428;-77
2022/03/11 05:49:56;;;;;;;28.67;16.65;;;0.70;69.50;;;-0.74;58.59;97566.00;5011499;28;20417;-76
2022/03/11 05:52:22;;;;;;;26.02;15.25;;;0.60;70.00;;;-0.88;59.29;97565.78;5012751;28;20769;-77
2022/03/11 05:54:48;;;;;;;29.17;16.83;;;0.50;70.00;;;-0.82;58.87;97564.28;5010840;28;20412;-77
2022/03/11 05:57:14;;;;;;;28.27;16.67;;;0.50;70.20;;;-0.80;59.63;97557.13;5013158;28;20420;-77
2022/03/11 05:59:40;;;;;;;27.73;16.42;;;0.50;70.60;;;-0.89;59.11;97558.97;5013257;28;20408;-78
2022/03/11 06:02:06;;;;;;;28.02;16.45;;;0.50;70.70;;;-0.90;59.04;97556.53;5008989;28;20519;-75
2022/03/11 06:04:32;;;;;;;32.10;15.48;;;0.50;70.60;;;-1.00;59.67;97561.19;5011312;28;20416;-76
2022/03/11 06:06:59;;;;;;;26.73;14.80;;;0.40;71.00;;;-1.04;59.94;97562.50;5011743;28;20785;-77
2022/03/11 06:09:25;;;;;;;26.93;15.57;;;0.30;71.10;;;-1.00;59.76;97566.38;5009732;28;20408;-77
2022/03/11 06:11:53;;;;;;;29.58;15.73;;;0.30;71.10;;;-0.96;59.09;97567.63;5012338;28;20404;-75
2022/03/11 06:14:19;;;;;;;24.58;14.73;;;0.40;70.80;;;-0.98;59.26;97565.22;5013106;28;20401;-75
2022/03/11 06:16:45;;;;;;;25.00;14.23;;;0.30;70.40;;;-0.97;59.28;97572.03;5013406;28;20404;-77
2022/03/11 06:19:11;;;;;;;29.63;14.67;;;0.40;70.30;;;-0.82;57.28;97569.47;5013304;28;20416;-76
2022/03/11 06:21:37;;;;;;;25.52;14.93;;;0.50;68.70;;;-0.75;57.80;97572.97;5011759;28;20420;-77
2022/03/11 06:24:05;;;;;;;21.00;13.13;;;0.50;68.90;;;-0.79;58.06;97563.94;5012062;28;20898;-77
2022/03/11 06:26:31;;;;;;;24.33;13.63;;;0.60;68.90;;;-0.70;57.28;97562.06;5012490;28;20420;-77
2022/03/11 06:28:57;;;;;;;25.63;13.95;;;0.60;68.60;;;-0.66;57.54;97568.53;5013087;28;20466;-76
2022/03/11 06:31:23;;;;;;;23.65;14.02;;;0.60;68.60;;;-0.64;57.28;97567.38;5012761;28;20420;-75
2022/03/11 06:33:49;;;;;;;25.25;13.35;;;0.60;67.80;;;-0.67;57.21;97572.09;5013312;28;20404;-75
2022/03/11 06:36:15;;;;;;;24.40;13.45;;;0.70;68.20;;;-0.62;57.25;97577.59;5011795;28;20495;-76
2022/03/11 06:38:40;;;;;;;28.30;13.93;;;0.70;68.10;;;-0.54;57.04;97577.53;5013172;28;20797;-76
2022/03/11 06:41:08;;;;;;;25.45;13.00;;;0.80;67.90;;;-0.52;56.96;97571.16;5012570;28;20495;-76
2022/03/11 06:43:34;;;;;;;21.98;12.70;;;0.80;67.60;;;-0.52;56.44;97565.16;5013114;28;20416;-76
2022/03/11 06:46:00;;;;;;;23.27;12.03;;;0.80;67.20;;;-0.48;56.28;97564.63;5012970;28;20492;-76
2022/03/11 06:48:26;;;;;;;18.40;10.75;;;0.80;66.90;;;-0.44;56.54;97565.06;5013081;28;20420;-76
2022/03/11 06:50:52;;;;;;;20.58;11.50;;;0.90;66.80;;;-0.35;55.70;97564.03;5027785;28;20805;-76
2022/03/11 06:53:18;;;;;;;21.33;11.43;;;1.00;66.50;;;-0.27;55.08;97563.94;5013142;28;20432;-76
2022/03/11 06:55:44;;;;;;;21.50;11.48;;;1.00;65.90;;;-0.16;53.79;97566.13;5012860;28;20397;-76
2022/03/11 06:58:11;;;;;;;17.83;10.55;;;1.10;63.80;;;-0.10;53.95;97562.78;5012785;28;20486;-76
2022/03/11 07:00:37;;;;;;;18.67;10.95;;;1.20;64.20;;;0.01;53.87;97566.72;5012153;28;20400;-76
2022/03/11 07:03:03;;;;;;;18.17;10.60;;;1.30;65.00;;;0.10;53.76;97562.25;5012388;28;20504;-77
2022/03/11 07:05:29;;;;;;;24.75;10.80;;;1.40;63.60;;;0.20;52.27;97567.97;5012308;28;20429;-78
2022/03/11 07:07:55;;;;;;;16.58;9.82;;;1.40;61.60;;;0.27;52.46;97574.06;5011100;28;20417;-77
2022/03/11 07:10:21;;;;;;;21.13;10.90;;;1.50;62.10;;;0.37;51.24;97575.44;5011982;28;20482;-77
2022/03/11 07:12:47;;;;;;;18.27;10.10;;;1.60;60.50;;;0.44;51.04;97575.50;5012463;28;20412;-77
2022/03/11 07:15:14;;;;;;;23.90;12.00;;;1.70;60.50;;;0.51;49.83;97575.56;5012244;28;20401;-77
2022/03/11 07:17:40;;;;;;;17.50;10.68;;;1.70;58.90;;;0.55;49.88;97574.19;5012252;28;20409;-77
2022/03/11 07:20:08;;;;;;;20.57;10.80;;;1.80;58.70;;;0.64;49.36;97573.13;5011946;28;20778;-77
2022/03/11 07:22:34;;;;;;;19.50;10.45;;;1.90;58.50;;;0.69;49.62;97581.16;5010878;28;20759;-76
2022/03/11 07:25:00;;;;;;;18.90;9.85;;;1.90;58.40;;;0.76;49.66;97582.84;5011998;28;20497;-76
2022/03/11 07:27:27;;;;;;;15.30;9.02;;;2.00;58.60;;;0.83;49.45;97571.72;5012009;28;20425;-76
2022/03/11 07:29:56;;;;;;;15.07;9.38;;;2.10;58.50;;;0.90;49.24;97578.63;5012000;28;20409;-77
2022/03/11 07:32:23;;;;;;;14.75;8.82;;;2.10;58.50;;;0.96;49.54;97579.66;5005825;28;20479;-76
2022/03/11 07:34:49;;;;;;;14.15;9.25;;;2.20;58.50;;;1.02;49.68;97587.56;5011643;28;20411;-76
2022/03/11 07:37:15;;;;;;;15.60;9.90;;;2.20;58.40;;;1.07;49.05;97587.78;5011283;28;20396;-77
2022/03/11 07:39:42;;;;;;;19.55;10.10;;;2.30;57.80;;;1.09;47.97;97588.41;5010976;28;20870;-76
2022/03/11 07:42:08;;;;;;;17.52;10.68;;;2.30;56.80;;;1.12;47.67;97585.47;5010325;28;20397;-77
2022/03/11 07:44:35;;;;;;;23.67;11.38;;;2.30;56.50;;;1.14;47.51;97588.66;5009551;28;20417;-77
2022/03/11 07:47:01;;;;;;;16.10;9.07;;;2.30;56.50;;;1.21;48.00;97590.50;5009550;28;20424;-77
2022/03/11 07:49:28;;;;;;;16.45;10.00;;;2.40;56.70;;;1.28;47.92;97594.78;5009569;28;20408;-78
2022/03/11 07:51:54;;;;;;;22.80;11.60;;;2.50;56.90;;;1.31;47.43;97586.63;5010482;28;20416;-77
2022/03/11 07:54:20;;;;;;;17.42;10.40;;;2.50;56.00;;;1.37;47.67;97588.47;5002736;28;20995;-78
2022/03/11 07:56:46;;;;;;;18.30;10.45;;;2.60;56.30;;;1.46;47.55;97586.53;5007499;28;20424;-76
2022/03/11 07:59:12;;;;;;;15.95;9.02;;;2.60;56.40;;;1.55;47.55;97588.03;5007269;28;20478;-75
2022/03/11 08:01:38;;;;;;;16.67;10.30;;;2.70;56.60;;;1.61;47.75;97582.03;5009246;28;20419;-76
2022/03/11 08:04:05;;;;;;;19.88;11.57;;;2.80;56.50;;;1.69;47.49;97584.50;5019784;28;20415;-77
2022/03/11 08:06:32;;;;;;;23.13;12.20;;;2.90;56.20;;;1.76;47.34;97585.38;5013669;28;20421;-80
2022/03/11 08:08:58;;;;;;;20.83;12.02;;;2.90;56.00;;;1.81;47.09;97579.56;5028041;28;20417;-81
2022/03/11 08:11:24;;;;;;;20.37;11.00;;;3.00;55.80;;;1.85;47.17;97579.00;5026348;28;20469;-80
2022/03/11 08:13:50;;;;;;;22.92;11.90;;;3.00;55.80;;;1.91;47.21;97580.84;5017227;28;20452;-79
2022/03/11 08:16:16;;;;;;;19.67;11.55;;;3.10;56.20;;;1.97;47.12;97575.84;5017780;28;20412;-80
2022/03/11 08:18:43;;;;;;;18.95;11.13;;;3.20;55.90;;;2.03;47.24;97573.28;5018501;28;20424;-76
2022/03/11 08:21:11;;;;;;;18.30;10.43;;;3.20;55.80;;;2.10;47.05;97578.56;5018143;28;20518;-85
2022/03/11 08:23:40;;;;;;;17.05;10.23;;;3.30;56.00;;;2.18;47.59;97573.19;5018647;28;20502;-80
2022/03/11 08:26:06;;;;;;;17.90;10.05;;;3.30;56.20;;;2.25;47.23;97580.03;5023476;28;20940;-78
2022/03/11 08:28:32;;;;;;;17.30;10.93;;;3.40;56.10;;;2.31;46.89;97570.63;5017258;28;20925;-76
2022/03/11 08:30:58;;;;;;;18.55;10.48;;;3.50;56.00;;;2.37;47.31;97574.25;5015492;28;20429;-77
2022/03/11 08:33:24;;;;;;;19.03;11.33;;;3.50;56.00;;;2.45;47.28;97571.47;5021225;28;20954;-80
2022/03/11 08:35:52;;;;;;;17.55;10.75;;;3.60;56.10;;;2.54;47.31;97573.75;5016319;28;20543;-75
2022/03/11 08:38:19;;;;;;;22.63;13.38;;;3.60;56.00;;;2.63;47.46;97572.53;5018766;28;20432;-75
2022/03/11 08:40:46;;;;;;;20.60;11.88;;;3.80;56.10;;;2.69;47.17;97577.00;5029738;28;20416;-77
2022/03/11 08:43:12;;;;;;;20.45;12.02;;;3.80;55.90;;;2.74;47.13;97573.78;5031150;28;21681;-79
2022/03/11 08:45:38;;;;;;;18.75;11.40;;;3.80;55.80;;;2.84;47.35;97581.28;5028442;28;20464;-87
2022/03/11 08:48:06;;;;;;;19.42;11.13;;;3.90;56.20;;;2.94;47.47;97574.66;5037399;28;20445;-81
2022/03/11 08:50:33;;;;;;;19.42;10.98;;;4.00;56.00;;;3.01;46.92;97577.28;5026349;28;20402;-81
2022/03/11 08:52:59;;;;;;;19.27;11.67;;;4.10;55.90;;;3.08;46.94;97567.66;5023061;28;20413;-85
2022/03/11 08:55:25;;;;;;;22.75;11.93;;;4.20;55.80;;;3.13;46.59;97570.47;5019710;28;20417;-79
2022/03/11 08:57:53;;;;;;;17.45;10.50;;;4.20;55.40;;;3.19;46.92;97559.22;5021729;28;20420;-89
2022/03/11 09:00:21;;;;;;;21.08;11.18;;;4.30;55.60;;;3.27;46.70;97566.06;5016544;28;20542;-83
2022/03/11 09:02:49;;;;;;;18.25;10.52;;;4.40;55.60;;;3.34;46.47;97553.78;5018229;28;20411;-82
2022/03/11 09:05:18;;;;;;;18.60;10.65;;;4.40;55.20;;;3.40;46.51;97556.41;5033821;28;20836;-81
2022/03/11 09:07:45;;;;;;;22.10;12.73;;;4.50;55.10;;;3.46;46.64;97554.78;5019151;28;20413;-87
2022/03/11 09:10:12;;;;;;;18.40;11.27;;;4.50;55.10;;;3.56;46.77;97547.34;5012266;28;20439;-79
2022/03/11 09:12:39;;;;;;;17.35;10.77;;;4.60;55.30;;;3.65;46.66;97553.16;5019273;28;20413;-83
2022/03/11 09:15:10;;;;;;;23.55;13.32;;;4.70;55.50;;;3.72;45.48;97548.72;5016579;28;20464;-78
2022/03/11 09:17:36;;;;;;;25.15;12.70;;;4.80;54.00;;;3.72;45.50;97551.34;5020553;28;20444;-80
2022/03/11 09:20:06;;;;;;;15.93;9.88;;;4.80;53.90;;;3.78;45.53;97546.09;5019506;28;20435;-91
2022/03/11 09:22:33;;;;;;;23.13;12.70;;;4.90;54.10;;;3.86;45.34;97540.66;5029153;28;20407;-88
2022/03/11 09:25:00;;;;;;;21.77;12.48;;;5.00;53.70;;;3.95;45.00;97530.78;5021036;28;20427;-90
2022/03/11 09:27:29;;;;;;;18.95;11.07;;;5.10;53.60;;;4.07;45.23;97536.16;5017935;28;20413;-82
2022/03/11 09:29:55;;;;;;;17.70;11.23;;;5.10;53.70;;;4.13;45.11;97530.94;5016477;28;20428;-83
2022/03/11 09:32:22;;;;;;;17.20;10.05;;;5.20;53.40;;;4.24;45.11;97530.28;5017436;28;20413;-88
2022/03/11 09:34:48;;;;;;;16.13;9.70;;;5.30;53.60;;;4.35;45.00;97530.66;5034533;28;20419;-76
2022/03/11 09:37:14;;;;;;;16.40;8.80;;;5.40;53.60;;;4.46;45.08;97522.13;5017023;28;20408;-81
2022/03/11 09:39:40;;;;;;;23.08;10.70;;;5.40;53.60;;;4.51;44.78;97528.34;5018208;28;20861;-76
2022/03/11 09:42:06;;;;;;;18.40;10.05;;;5.60;53.00;;;4.58;44.09;97533.56;5020271;28;20476;-80
2022/03/11 09:44:33;;;;;;;17.47;10.57;;;5.60;52.50;;;4.61;43.67;97525.28;5018159;28;20436;-78
2022/03/11 09:47:00;;;;;;;16.75;9.65;;;5.70;51.90;;;4.70;43.92;97525.84;5018395;28;20910;-87
2022/03/11 09:49:33;;;;;;;17.98;10.60;;;5.70;52.20;;;4.76;43.56;97519.75;5016486;28;20469;-84
2022/03/11 09:52:00;;;;;;;15.98;9.75;;;5.80;51.90;;;4.87;43.62;97522.53;5019858;28;20463;-86
2022/03/11 09:54:26;;;;;;;17.33;10.07;;;5.90;52.00;;;5.00;43.42;97524.25;5016613;28;20451;-86
2022/03/11 09:56:53;;;;;;;15.68;9.40;;;6.00;51.90;;;5.10;42.86;97508.03;5019749;28;20776;-82
2022/03/11 09:59:19;;;;;;;16.98;10.10;;;6.10;51.50;;;5.24;43.12;97509.56;5019495;28;20428;-89
2022/03/11 10:01:45;;;;;;;15.67;9.10;;;6.20;51.40;;;5.39;42.98;97510.84;5019755;28;20904;-77
2022/03/11 10:04:11;;;;;;;15.00;9.20;;;6.30;51.20;;;5.56;42.31;97508.47;5021234;28;20421;-81
2022/03/11 10:06:40;;;;;;;15.47;9.47;;;6.50;50.40;;;5.94;41.31;97510.94;5024453;28;20421;-77
2022/03/11 10:09:30;;;;;;;16.33;9.00;;;6.80;49.90;;;6.63;40.47;97501.03;5018009;28;20527;-76
2022/03/11 10:12:00;;;;;;;16.70;8.88;;;7.40;49.20;;;7.80;39.46;97507.31;5021491;28;20461;-82
2022/03/11 10:14:32;;;;;;;12.25;7.90;;;8.70;47.90;;;9.22;37.30;97514.34;5022521;28;20470;-87